createdAt,value
2022-08-08T00:00:41.129Z,4.1
2022-08-08T00:02:31.704Z,4.1
2022-08-08T00:04:24.992Z,4.1
2022-08-08T00:06:28.141Z,4.1
2022-08-08T00:08:24.459Z,4.1
2022-08-08T00:10:28.289Z,4.1
2022-08-08T00:12:29.533Z,4.1
2022-08-08T00:16:29.690Z,4.1
2022-08-08T00:18:30.697Z,4.1
2022-08-08T00:20:32.390Z,4.1
2022-08-08T00:22:34.283Z,4.1
2022-08-08T00:26:37.363Z,4.1
2022-08-08T00:28:38.425Z,4.1
2022-08-08T00:32:41.485Z,4.1
2022-08-08T00:34:45.123Z,4.09
2022-08-08T00:36:44.056Z,4.1
2022-08-08T00:41:08.283Z,4.1
2022-08-08T00:42:48.519Z,4.1
2022-08-08T00:44:50.968Z,4.09
2022-08-08T00:46:56.313Z,4.1
2022-08-08T00:48:59.535Z,4.09
2022-08-08T00:50:55.538Z,4.09
2022-08-08T00:52:57.144Z,4.1
2022-08-08T00:57:00.152Z,4.09
2022-08-08T00:59:02.482Z,4.09
2022-08-08T01:01:02.649Z,4.09
2022-08-08T01:03:57.851Z,4.09
2022-08-08T01:05:04.876Z,4.09
2022-08-08T01:07:06.398Z,4.09
2022-08-08T01:09:35.290Z,4.09
2022-08-08T01:11:08.587Z,4.09
2022-08-08T01:13:09.704Z,4.09
2022-08-08T01:15:10.715Z,4.09
2022-08-08T01:17:12.261Z,4.09
2022-08-08T01:19:25.579Z,4.09
2022-08-08T01:21:15.301Z,4.09
2022-08-08T01:25:18.138Z,4.09
2022-08-08T01:27:21.472Z,4.08
2022-08-08T01:32:02.657Z,4.09
2022-08-08T01:33:28.141Z,4.09
2022-08-08T01:35:29.503Z,4.08
2022-08-08T01:37:41.263Z,4.09
2022-08-08T01:41:34.142Z,4.08
2022-08-08T01:43:34.572Z,4.08
2022-08-08T01:45:31.682Z,4.09
2022-08-08T01:46:15.561Z,4.08
2022-08-08T01:48:30.572Z,4.08
2022-08-08T01:52:42.649Z,4.08
2022-08-08T01:55:18.409Z,4.08
2022-08-08T01:56:28.068Z,4.08
2022-08-08T01:58:32.141Z,4.08
2022-08-08T02:02:34.607Z,4.08
2022-08-08T02:04:28.422Z,4.08
2022-08-08T02:06:31.535Z,4.08
2022-08-08T02:08:33.674Z,4.08
2022-08-08T02:10:36.960Z,4.08
2022-08-08T02:12:33.908Z,4.08
2022-08-08T02:14:35.378Z,4.08
2022-08-08T02:18:38.811Z,4.08
2022-08-08T02:21:00.575Z,4.08
2022-08-08T02:22:45.968Z,4.08
2022-08-08T02:24:44.161Z,4.08
2022-08-08T02:26:44.168Z,4.08
2022-08-08T02:28:48.269Z,4.08
2022-08-08T02:30:49.932Z,4.08
2022-08-08T02:35:06.308Z,4.08
2022-08-08T02:36:51.631Z,4.08
2022-08-08T02:38:52.939Z,4.08
2022-08-08T02:43:00.542Z,4.08
2022-08-08T02:44:57.671Z,4.08
2022-08-08T02:46:57.690Z,4.08
2022-08-08T02:48:58.647Z,4.08
2022-08-08T02:50:59.991Z,4.08
2022-08-08T02:53:01.253Z,4.08
2022-08-08T02:55:02.738Z,4.07
2022-08-08T02:57:05.024Z,4.08
2022-08-08T03:01:08.714Z,4.07
2022-08-08T03:03:09.181Z,4.08
2022-08-08T03:05:10.842Z,4.07
2022-08-08T03:07:13.327Z,4.07
2022-08-08T03:09:13.590Z,4.07
2022-08-08T03:11:25.938Z,4.07
2022-08-08T03:13:34.306Z,4.07
2022-08-08T03:17:20.195Z,4.07
2022-08-08T03:19:19.988Z,4.07
2022-08-08T03:21:26.802Z,4.07
2022-08-08T03:23:23.608Z,4.07
2022-08-08T03:27:27.063Z,4.07
2022-08-08T03:29:26.868Z,4.07
2022-08-08T03:33:56.402Z,4.07
2022-08-08T03:35:33.183Z,4.07
2022-08-08T03:38:00.391Z,4.07
2022-08-08T03:39:34.387Z,4.07
2022-08-08T03:43:38.214Z,4.07
2022-08-08T03:46:03.785Z,4.07
2022-08-08T03:49:59.421Z,4.06
2022-08-08T03:51:50.831Z,4.07
2022-08-08T03:53:47.558Z,4.07
2022-08-08T03:55:56.978Z,4.07
2022-08-08T03:59:57.219Z,4.06
2022-08-08T04:02:02.304Z,4.07
2022-08-08T04:05:52.800Z,4.06
2022-08-08T04:10:00.224Z,4.06
2022-08-08T04:12:00.711Z,4.06
2022-08-08T04:16:04.288Z,4.06
2022-08-08T04:18:01.754Z,4.06
2022-08-08T04:20:04.788Z,4.06
2022-08-08T04:22:04.781Z,4.06
2022-08-08T04:26:09.304Z,4.06
2022-08-08T04:28:35.940Z,4.06
2022-08-08T04:30:17.525Z,4.06
2022-08-08T04:32:12.096Z,4.06
2022-08-08T04:34:13.215Z,4.06
2022-08-08T04:36:14.982Z,4.06
2022-08-08T04:38:21.543Z,4.06
2022-08-08T04:42:20.149Z,4.06
2022-08-08T04:44:21.283Z,4.06
2022-08-08T04:46:22.867Z,4.06
2022-08-08T04:48:24.321Z,4.06
2022-08-08T04:50:28.201Z,4.06
2022-08-08T04:52:33.824Z,4.06
2022-08-08T04:54:40.410Z,4.06
2022-08-08T04:58:33.001Z,4.06
2022-08-08T05:00:33.697Z,4.06
2022-08-08T05:02:35.785Z,4.06
2022-08-08T05:04:36.997Z,4.06
2022-08-08T05:06:39.028Z,4.06
2022-08-08T05:08:39.868Z,4.06
2022-08-08T05:10:41.065Z,4.06
2022-08-08T05:14:43.865Z,4.07
2022-08-08T05:16:48.955Z,4.07
2022-08-08T05:18:46.669Z,4.07
2022-08-08T05:20:48.599Z,4.07
2022-08-08T05:22:49.018Z,4.07
2022-08-08T05:24:49.616Z,4.06
2022-08-08T05:26:50.656Z,4.06
2022-08-08T05:30:54.442Z,4.07
2022-08-08T05:32:55.600Z,4.08
2022-08-08T05:34:57.242Z,4.08
2022-08-08T05:36:58.415Z,4.08
2022-08-08T05:41:00.894Z,4.09
2022-08-08T05:43:02.297Z,4.09
2022-08-08T05:45:10.077Z,4.1
2022-08-08T05:47:05.189Z,4.1
2022-08-08T05:49:10.456Z,4.1
2022-08-08T05:51:12.992Z,4.11
2022-08-08T05:53:23.233Z,4.11
2022-08-08T05:57:10.826Z,4.13
2022-08-08T05:59:12.374Z,4.13
2022-08-08T06:01:12.891Z,4.13
2022-08-08T06:03:17.633Z,4.13
2022-08-08T06:05:24.446Z,4.14
2022-08-08T06:07:16.571Z,4.14
2022-08-08T06:09:42.069Z,4.14
2022-08-08T06:13:22.506Z,4.15
2022-08-08T06:15:21.160Z,4.15
2022-08-08T06:17:32.253Z,4.15
2022-08-08T06:19:23.994Z,4.16
2022-08-08T06:23:39.732Z,4.16
2022-08-08T06:25:33.493Z,4.16
2022-08-08T06:29:49.609Z,4.17
2022-08-08T06:31:52.744Z,4.17
2022-08-08T06:33:36.478Z,4.17
2022-08-08T06:36:05.180Z,4.17
2022-08-08T06:39:37.965Z,4.17
2022-08-08T06:41:39.269Z,4.18
2022-08-08T06:43:41.052Z,4.18
2022-08-08T06:45:43.126Z,4.18
2022-08-08T06:47:48.944Z,4.18
2022-08-08T06:49:54.702Z,4.18
2022-08-08T06:53:50.650Z,4.19
2022-08-08T06:57:54.999Z,4.19
2022-08-08T07:00:11.005Z,4.19
2022-08-08T07:02:18.359Z,4.19
2022-08-08T07:04:39.337Z,4.19
2022-08-08T07:06:01.933Z,4.19
2022-08-08T07:07:58.578Z,4.19
2022-08-08T07:12:02.103Z,4.19
2022-08-08T07:14:03.103Z,4.2
2022-08-08T07:16:07.200Z,4.2
2022-08-08T07:18:35.251Z,4.2
2022-08-08T07:22:11.809Z,4.2
2022-08-08T07:24:10.404Z,4.2
2022-08-08T07:26:11.299Z,4.2
2022-08-08T07:28:18.656Z,4.2
2022-08-08T07:30:16.657Z,4.2
2022-08-08T07:32:16.007Z,4.2
2022-08-08T07:34:20.184Z,4.2
2022-08-08T07:38:18.293Z,4.2
2022-08-08T07:40:20.930Z,4.2
2022-08-08T07:42:20.023Z,4.2
2022-08-08T07:44:37.100Z,4.2
2022-08-08T07:46:24.255Z,4.2
2022-08-08T07:48:23.653Z,4.2
2022-08-08T07:50:25.359Z,4.19
2022-08-08T07:54:28.832Z,4.19
2022-08-08T07:56:35.274Z,4.19
2022-08-08T07:58:30.780Z,4.19
2022-08-08T08:00:31.644Z,4.19
2022-08-08T08:04:33.353Z,4.19
2022-08-08T08:06:34.989Z,4.19
2022-08-08T08:08:36.570Z,4.19
2022-08-08T08:10:37.532Z,4.19
2022-08-08T08:12:41.276Z,4.18
2022-08-08T08:14:40.396Z,4.19
2022-08-08T08:16:41.618Z,4.19
2022-08-08T08:20:44.496Z,4.19
2022-08-08T08:22:47.369Z,4.18
2022-08-08T08:26:52.611Z,4.18
2022-08-08T08:28:49.864Z,4.18
2022-08-08T08:30:50.749Z,4.18
2022-08-08T08:31:34.851Z,4.18
2022-08-08T08:33:35.547Z,4.18
2022-08-08T08:36:18.315Z,4.18
2022-08-08T08:37:53.237Z,4.18
2022-08-08T08:39:59.607Z,4.18
2022-08-08T08:41:41.768Z,4.18
2022-08-08T08:43:45.086Z,4.18
2022-08-08T08:47:46.057Z,4.18
2022-08-08T08:49:46.969Z,4.18
2022-08-08T08:51:51.366Z,4.18
2022-08-08T08:55:51.067Z,4.18
2022-08-08T08:57:52.089Z,4.17
2022-08-08T08:59:59.197Z,4.18
2022-08-08T09:01:54.152Z,4.18
2022-08-08T09:03:55.120Z,4.18
2022-08-08T09:05:56.404Z,4.18
2022-08-08T09:08:12.233Z,4.17
2022-08-08T09:09:58.852Z,4.17
2022-08-08T09:12:01.221Z,4.18
2022-08-08T09:14:01.343Z,4.17
2022-08-08T09:18:04.642Z,4.18
2022-08-08T09:21:55.353Z,4.17
2022-08-08T09:22:07.360Z,4.17
2022-08-08T09:24:08.295Z,4.17
2022-08-08T09:26:09.169Z,4.17
2022-08-08T09:30:14.609Z,4.17
2022-08-08T09:32:14.497Z,4.17
2022-08-08T09:34:16.252Z,4.17
2022-08-08T09:38:18.166Z,4.17
2022-08-08T09:40:18.704Z,4.17
2022-08-08T09:42:21.437Z,4.17
2022-08-08T09:46:25.300Z,4.17
2022-08-08T09:48:29.132Z,4.17
2022-08-08T09:50:24.359Z,4.17
2022-08-08T09:52:54.003Z,4.17
2022-08-08T09:54:36.812Z,4.17
2022-08-08T09:56:28.173Z,4.17
2022-08-08T09:58:36.212Z,4.17
2022-08-08T10:00:47.905Z,4.17
2022-08-08T10:02:32.680Z,4.17
2022-08-08T10:04:35.544Z,4.17
2022-08-08T10:06:38.155Z,4.17
2022-08-08T10:08:44.768Z,4.17
2022-08-08T10:12:52.810Z,4.17
2022-08-08T10:14:41.127Z,4.17
2022-08-08T10:16:42.794Z,4.17
2022-08-08T10:18:44.289Z,4.16
2022-08-08T10:20:51.604Z,4.17
2022-08-08T10:22:54.758Z,4.16
2022-08-08T10:26:57.220Z,4.16
2022-08-08T10:28:53.790Z,4.16
2022-08-08T10:30:57.573Z,4.17
2022-08-08T10:34:58.647Z,4.16
2022-08-08T10:38:56.262Z,4.16
2022-08-08T10:40:57.926Z,4.16
2022-08-08T10:42:59.045Z,4.16
2022-08-08T10:45:00.706Z,4.16
2022-08-08T10:47:02.423Z,4.16
2022-08-08T10:49:03.935Z,4.16
2022-08-08T10:51:04.939Z,4.16
2022-08-08T10:55:07.983Z,4.16
2022-08-08T10:57:09.060Z,4.16
2022-08-08T10:59:10.460Z,4.16
2022-08-08T11:01:12.627Z,4.16
2022-08-08T11:03:15.464Z,4.16
2022-08-08T11:05:14.824Z,4.16
2022-08-08T11:07:40.930Z,4.16
2022-08-08T11:11:32.986Z,4.16
2022-08-08T11:13:27.972Z,4.16
2022-08-08T11:15:19.811Z,4.16
2022-08-08T11:17:29.298Z,4.16
2022-08-08T11:21:23.351Z,4.16
2022-08-08T11:23:24.554Z,4.16
2022-08-08T11:25:43.785Z,4.16
2022-08-08T11:29:29.530Z,4.16
2022-08-08T11:31:30.063Z,4.16
2022-08-08T11:33:52.116Z,4.16
2022-08-08T11:35:38.709Z,4.16
2022-08-08T11:38:34.958Z,4.16
2022-08-08T11:39:36.109Z,4.16
2022-08-08T11:41:36.444Z,4.15
2022-08-08T11:43:38.786Z,4.16
2022-08-08T11:46:00.074Z,4.15
2022-08-08T11:48:03.032Z,4.15
2022-08-08T11:49:41.799Z,4.15
2022-08-08T11:53:55.403Z,4.15
2022-08-08T11:55:45.772Z,4.16
2022-08-08T11:57:46.788Z,4.15
2022-08-08T11:59:58.945Z,4.15
2022-08-08T12:03:51.811Z,4.15
2022-08-08T12:05:52.511Z,4.15
2022-08-08T12:07:53.651Z,4.15
2022-08-08T12:09:57.220Z,4.15
2022-08-08T12:11:56.630Z,4.15
2022-08-08T12:14:02.614Z,4.15
2022-08-08T12:15:59.023Z,4.15
2022-08-08T12:20:01.081Z,4.15
2022-08-08T12:22:08.746Z,4.15
2022-08-08T12:24:02.994Z,4.15
2022-08-08T12:26:04.448Z,4.15
2022-08-08T12:28:05.244Z,4.15
2022-08-08T12:30:07.003Z,4.15
2022-08-08T12:32:09.373Z,4.15
2022-08-08T12:36:10.761Z,4.14
2022-08-08T12:38:16.523Z,4.15
2022-08-08T12:40:13.738Z,4.14
2022-08-08T12:42:20.772Z,4.15
2022-08-08T12:44:30.176Z,4.15
2022-08-08T12:46:18.951Z,4.14
2022-08-08T12:48:36.820Z,4.15
2022-08-08T12:52:27.995Z,4.14
2022-08-08T12:54:24.652Z,4.14
2022-08-08T12:56:24.287Z,4.14
2022-08-08T12:58:25.329Z,4.14
2022-08-08T13:00:33.737Z,4.14
2022-08-08T13:02:28.951Z,4.14
2022-08-08T13:04:29.578Z,4.14
2022-08-08T13:06:30.766Z,4.14
2022-08-08T13:08:33.051Z,4.14
2022-08-08T13:10:33.147Z,4.14
2022-08-08T13:12:34.372Z,4.14
2022-08-08T13:14:35.350Z,4.14
2022-08-08T13:18:44.738Z,4.14
2022-08-08T13:20:39.228Z,4.14
2022-08-08T13:24:48.024Z,4.17
2022-08-08T13:26:43.180Z,4.17
2022-08-08T13:28:45.653Z,4.17
2022-08-08T13:34:48.150Z,4.18
2022-08-08T13:36:49.043Z,4.18
2022-08-08T13:38:50.121Z,4.18
2022-08-08T13:40:52.234Z,4.19
2022-08-08T13:44:53.790Z,4.19
2022-08-08T13:46:55.489Z,4.18
2022-08-08T13:51:25.232Z,4.19
2022-08-08T13:52:58.535Z,4.19
2022-08-08T13:54:59.630Z,4.19
2022-08-08T13:57:00.942Z,4.19
2022-08-08T13:59:01.625Z,4.19
2022-08-08T14:01:03.007Z,4.19
2022-08-08T14:03:20.222Z,4.19
2022-08-08T14:05:09.634Z,4.19
2022-08-08T14:07:05.877Z,4.2
2022-08-08T14:09:18.753Z,4.19
2022-08-08T14:11:08.014Z,4.2
2022-08-08T14:13:10.027Z,4.19
2022-08-08T14:17:11.753Z,4.19
2022-08-08T14:19:15.271Z,4.2
2022-08-08T14:21:15.237Z,4.2
2022-08-08T14:23:20.916Z,4.2
2022-08-08T14:25:17.807Z,4.2
2022-08-08T14:27:16.820Z,4.2
2022-08-08T14:29:26.977Z,4.2
2022-08-08T14:33:20.701Z,4.2
2022-08-08T14:35:22.140Z,4.2
2022-08-08T14:37:27.814Z,4.2
2022-08-08T14:39:24.775Z,4.2
2022-08-08T14:43:31.841Z,4.19
2022-08-08T14:45:29.288Z,4.19
2022-08-08T14:47:30.257Z,4.19
2022-08-08T14:49:31.983Z,4.19
2022-08-08T14:51:47.477Z,4.19
2022-08-08T14:53:32.593Z,4.19
2022-08-08T14:55:35.455Z,4.19
2022-08-08T14:59:44.850Z,4.19
2022-08-08T15:01:41.086Z,4.19
2022-08-08T15:03:44.957Z,4.19
2022-08-08T15:05:43.360Z,4.19
2022-08-08T15:07:41.307Z,4.19
2022-08-08T15:09:41.831Z,4.19
2022-08-08T15:11:46.681Z,4.19
2022-08-08T15:16:02.299Z,4.19
2022-08-08T15:16:56.901Z,4.18
2022-08-08T15:20:58.680Z,4.18
2022-08-08T15:22:59.829Z,4.19
2022-08-08T15:27:04.006Z,4.19
2022-08-08T15:29:04.020Z,4.18
2022-08-08T15:31:05.686Z,4.18
2022-08-08T15:33:06.830Z,4.18
2022-08-08T15:37:09.499Z,4.18
2022-08-08T15:39:10.880Z,4.18
2022-08-08T15:41:11.705Z,4.18
2022-08-08T15:43:18.909Z,4.18
2022-08-08T15:47:16.326Z,4.18
2022-08-08T15:49:16.991Z,4.18
2022-08-08T15:51:17.324Z,4.18
2022-08-08T15:53:18.159Z,4.18
2022-08-08T15:55:19.712Z,4.18
2022-08-08T15:57:21.010Z,4.18
2022-08-08T15:59:21.931Z,4.18
2022-08-08T16:01:23.156Z,4.17
2022-08-08T16:03:24.407Z,4.18
2022-08-08T16:05:25.751Z,4.18
2022-08-08T16:07:39.412Z,4.17
2022-08-08T16:13:01.488Z,4.17
2022-08-08T16:13:06.657Z,4.17
2022-08-08T16:13:35.149Z,4.17
2022-08-08T16:15:32.790Z,4.18
2022-08-08T16:19:57.005Z,4.17
2022-08-08T16:21:35.849Z,4.17
2022-08-08T16:23:37.070Z,4.17
2022-08-08T16:25:46.070Z,4.17
2022-08-08T16:27:39.734Z,4.17
2022-08-08T16:30:08.487Z,4.17
2022-08-08T16:31:44.849Z,4.17
2022-08-08T16:35:47.130Z,4.17
2022-08-08T16:37:46.700Z,4.17
2022-08-08T16:40:01.758Z,4.17
2022-08-08T16:41:50.302Z,4.17
2022-08-08T16:46:35.576Z,4.17
2022-08-08T16:47:51.125Z,4.17
2022-08-08T16:49:52.269Z,4.17
2022-08-08T16:54:59.141Z,4.17
2022-08-08T16:54:59.454Z,4.17
2022-08-08T16:55:57.598Z,4.17
2022-08-08T16:58:13.485Z,4.17
2022-08-08T16:59:57.915Z,4.17
2022-08-08T17:01:58.643Z,4.17
2022-08-08T17:08:02.124Z,4.17
2022-08-08T17:10:03.700Z,4.17
2022-08-08T17:12:05.248Z,4.17
2022-08-08T17:14:06.044Z,4.17
2022-08-08T17:18:12.011Z,4.17
2022-08-08T17:20:09.937Z,4.17
2022-08-08T17:22:12.381Z,4.16
2022-08-08T17:26:14.568Z,4.17
2022-08-08T17:28:15.493Z,4.17
2022-08-08T17:30:23.501Z,4.16
2022-08-08T17:34:38.499Z,4.16
2022-08-08T17:36:29.456Z,4.16
2022-08-08T17:38:22.643Z,4.16
2022-08-08T17:40:24.095Z,4.16
2022-08-08T17:44:26.840Z,4.16
2022-08-08T17:46:27.730Z,4.16
2022-08-08T17:50:29.681Z,4.16
2022-08-08T17:52:31.084Z,4.16
2022-08-08T17:54:32.442Z,4.16
2022-08-08T17:56:34.057Z,4.16
2022-08-08T17:58:35.556Z,4.16
2022-08-08T18:00:39.127Z,4.16
2022-08-08T18:02:38.874Z,4.16
2022-08-08T18:04:48.610Z,4.16
2022-08-08T18:06:42.863Z,4.16
2022-08-08T18:08:43.510Z,4.16
2022-08-08T18:12:46.149Z,4.16
2022-08-08T18:16:51.999Z,4.16
2022-08-08T18:18:52.548Z,4.16
2022-08-08T18:20:55.260Z,4.16
2022-08-08T18:22:52.845Z,4.16
2022-08-08T18:26:56.123Z,4.16
2022-08-08T18:28:57.591Z,4.16
2022-08-08T18:30:58.216Z,4.16
2022-08-08T18:32:59.841Z,4.16
2022-08-08T18:35:00.721Z,4.16
2022-08-08T18:37:01.581Z,4.15
2022-08-08T18:39:03.001Z,4.16
2022-08-08T18:43:14.836Z,4.15
2022-08-08T18:45:08.839Z,4.15
2022-08-08T18:49:11.189Z,4.15
2022-08-08T18:51:27.336Z,4.16
2022-08-08T18:53:13.110Z,4.15
2022-08-08T18:55:14.889Z,4.15
2022-08-08T18:59:17.707Z,4.15
2022-08-08T19:02:14.085Z,4.15
2022-08-08T19:03:20.311Z,4.15
2022-08-08T19:05:21.704Z,4.15
2022-08-08T19:09:32.368Z,4.15
2022-08-08T19:11:26.420Z,4.15
2022-08-08T19:15:33.730Z,4.15
2022-08-08T19:17:47.764Z,4.15
2022-08-08T19:19:30.825Z,4.15
2022-08-08T19:21:33.105Z,4.15
2022-08-08T19:25:59.789Z,4.15
2022-08-08T19:27:52.917Z,4.14
2022-08-08T19:29:40.622Z,4.15
2022-08-08T19:31:39.711Z,4.15
2022-08-08T19:33:51.630Z,4.15
2022-08-08T19:35:44.123Z,4.15
2022-08-08T19:37:47.729Z,4.15
2022-08-08T19:41:46.972Z,4.14
2022-08-08T19:44:02.704Z,4.15
2022-08-08T19:47:51.195Z,4.14
2022-08-08T19:49:59.508Z,4.14
2022-08-08T19:51:53.852Z,4.14
2022-08-08T19:53:54.904Z,4.14
2022-08-08T19:55:56.187Z,4.14
2022-08-08T19:57:57.433Z,4.14
2022-08-08T19:59:58.623Z,4.14
2022-08-08T20:02:01.972Z,4.14
2022-08-08T20:04:03.314Z,4.14
2022-08-08T20:08:27.393Z,4.14
2022-08-08T20:10:04.309Z,4.14
2022-08-08T20:14:13.578Z,4.14
2022-08-08T20:16:08.101Z,4.14
2022-08-08T20:18:15.698Z,4.14
2022-08-08T20:20:10.848Z,4.14
2022-08-08T20:24:12.792Z,4.14
2022-08-08T20:26:13.964Z,4.14
2022-08-08T20:28:18.850Z,4.14
2022-08-08T20:30:35.672Z,4.14
2022-08-08T20:32:17.327Z,4.14
2022-08-08T20:34:28.602Z,4.14
2022-08-08T20:38:21.333Z,4.14
2022-08-08T20:40:26.581Z,4.14
2022-08-08T20:42:28.314Z,4.14
2022-08-08T20:44:25.731Z,4.14
2022-08-08T20:46:27.139Z,4.14
2022-08-08T20:50:29.491Z,4.13
2022-08-08T20:52:30.436Z,4.14
2022-08-08T20:54:31.752Z,4.13
2022-08-08T20:56:34.900Z,4.13
2022-08-08T20:58:34.515Z,4.14
2022-08-08T21:00:39.846Z,4.13
2022-08-08T21:02:38.037Z,4.13
2022-08-08T21:06:52.281Z,4.13
2022-08-08T21:08:48.615Z,4.13
2022-08-08T21:12:45.903Z,4.13
2022-08-08T21:14:49.108Z,4.13
2022-08-08T21:16:48.352Z,4.13
2022-08-08T21:18:49.662Z,4.13
2022-08-08T21:20:51.206Z,4.13
2022-08-08T21:22:52.240Z,4.13
2022-08-08T21:26:54.546Z,4.13
2022-08-08T21:30:57.565Z,4.13
2022-08-08T21:32:59.329Z,4.13
2022-08-08T21:36:13.358Z,4.13
2022-08-08T21:37:11.246Z,4.13
2022-08-08T21:39:04.189Z,4.13
2022-08-08T21:41:05.083Z,4.13
2022-08-08T21:43:06.615Z,4.13
2022-08-08T21:45:20.785Z,4.13
2022-08-08T21:49:10.189Z,4.13
2022-08-08T21:51:11.697Z,4.12
2022-08-08T21:54:19.011Z,4.12
2022-08-08T21:55:24.410Z,4.12
2022-08-08T21:57:16.512Z,4.12
2022-08-08T21:59:17.902Z,4.12
2022-08-08T22:01:22.436Z,4.12
2022-08-08T22:02:04.332Z,4.12
2022-08-08T22:04:04.100Z,4.12
2022-08-08T22:08:07.116Z,4.12
2022-08-08T22:10:18.078Z,4.12
2022-08-08T22:12:10.083Z,4.12
2022-08-08T22:14:11.545Z,4.12
2022-08-08T22:16:12.723Z,4.12
2022-08-08T22:18:13.697Z,4.12
2022-08-08T22:20:18.970Z,4.12
2022-08-08T22:22:16.773Z,4.12
2022-08-08T22:26:20.537Z,4.12
2022-08-08T22:29:05.396Z,4.12
2022-08-08T22:30:29.337Z,4.12
2022-08-08T22:32:23.234Z,4.12
2022-08-08T22:36:32.272Z,4.12
2022-08-08T22:38:27.233Z,4.12
2022-08-08T22:40:31.834Z,4.12
2022-08-08T22:42:31.531Z,4.12
2022-08-08T22:44:31.545Z,4.12
2022-08-08T22:46:33.081Z,4.12
2022-08-08T22:48:34.340Z,4.12
2022-08-08T22:50:36.120Z,4.12
2022-08-08T22:52:37.428Z,4.12
2022-08-08T22:56:41.090Z,4.12
2022-08-08T23:00:43.703Z,4.12
2022-08-08T23:02:50.102Z,4.11
2022-08-08T23:04:46.279Z,4.12
2022-08-08T23:08:54.914Z,4.11
2022-08-08T23:10:52.699Z,4.11
2022-08-08T23:12:52.270Z,4.12
2022-08-08T23:14:56.324Z,4.11
2022-08-08T23:16:59.007Z,4.11
2022-08-08T23:18:56.783Z,4.11
2022-08-08T23:20:57.980Z,4.11
2022-08-08T23:25:00.693Z,4.11
2022-08-08T23:27:02.103Z,4.11
2022-08-08T23:29:03.890Z,4.11
2022-08-08T23:31:04.971Z,4.11
2022-08-08T23:33:06.689Z,4.11
2022-08-08T23:35:08.373Z,4.11
2022-08-08T23:37:11.563Z,4.11
2022-08-08T23:41:17.644Z,4.11
2022-08-08T23:45:14.858Z,4.11
2022-08-08T23:48:58.706Z,4.1
2022-08-08T23:49:18.610Z,4.11
2022-08-08T23:51:42.723Z,4.11
2022-08-08T23:53:56.180Z,4.11
2022-08-08T23:55:22.931Z,4.11
2022-08-08T23:59:24.749Z,4.11
